Time;durP1;ratioP1;P1;durP2;ratioP2;P2;SDS_P1;SDS_P2;PMS_P1;PMS_P2;Temp;Humidity;BMP_temperature;BMP_pressure;BME280_temperature;BME280_humidity;BME280_pressure;Samples;Min_cycle;Max_cycle;Signal;HPM_P1;HPM_P2
2021/01/18 00:00:45;;;;;;;6.05;4.25;;;0.70;99.90;;;;;;4720033;30;20056;-81
2021/01/18 00:03:16;;;;;;;8.25;5.20;;;0.80;99.90;;;;;;4719713;30;20458;-81
2021/01/18 00:05:48;;;;;;;6.93;5.45;;;0.80;99.90;;;;;;4734560;30;20424;-80
2021/01/18 00:08:20;;;;;;;6.18;4.75;;;0.80;99.90;;;;;;4737461;30;20425;-81
2021/01/18 00:10:51;;;;;;;7.28;5.63;;;0.70;99.90;;;;;;4738389;30;20529;-81
2021/01/18 00:13:22;;;;;;;6.53;4.85;;;0.70;99.90;;;;;;4723617;30;20054;-81
2021/01/18 00:15:54;;;;;;;6.10;4.70;;;0.70;99.90;;;;;;4723337;30;20131;-80
2021/01/18 00:18:20;;;;;;;6.82;5.15;;;0.70;99.90;;;;;;4722584;30;20056;-80
2021/01/18 00:20:48;;;;;;;7.43;5.55;;;0.70;99.90;;;;;;4722714;30;20080;-80
2021/01/18 00:23:19;;;;;;;7.05;5.07;;;0.70;99.90;;;;;;4737299;30;20063;-81
2021/01/18 00:25:51;;;;;;;9.63;5.70;;;0.70;99.90;;;;;;4723122;30;20482;-81
2021/01/18 00:28:22;;;;;;;8.48;5.30;;;0.80;99.90;;;;;;4737809;30;20056;-81
2021/01/18 00:30:53;;;;;;;8.10;5.65;;;0.80;99.90;;;;;;4723278;30;20596;-81
2021/01/18 00:33:25;;;;;;;7.53;5.47;;;0.80;99.90;;;;;;4737095;30;20460;-81
2021/01/18 00:35:56;;;;;;;6.85;4.88;;;0.80;99.90;;;;;;4723270;30;20110;-81
2021/01/18 00:38:28;;;;;;;7.93;5.10;;;0.80;99.90;;;;;;4723057;30;20071;-81
2021/01/18 00:40:55;;;;;;;8.35;5.28;;;0.80;99.90;;;;;;4722662;30;20063;-81
2021/01/18 00:43:28;;;;;;;7.32;4.63;;;0.80;99.90;;;;;;4723207;30;20076;-80
2021/01/18 00:45:59;;;;;;;6.65;5.28;;;0.80;99.90;;;;;;4723450;30;20467;-81
2021/01/18 00:48:31;;;;;;;5.85;4.22;;;0.80;99.90;;;;;;4723192;30;20102;-81
2021/01/18 00:51:02;;;;;;;8.20;4.97;;;0.80;99.90;;;;;;4737238;30;20131;-82
2021/01/18 00:53:28;;;;;;;5.88;4.70;;;0.80;99.90;;;;;;4723036;30;20048;-81
2021/01/18 00:56:00;;;;;;;6.43;5.10;;;0.80;99.90;;;;;;4723363;30;20056;-81
2021/01/18 00:58:43;;;;;;;6.43;4.25;;;0.70;99.90;;;;;;4724841;30;20056;-82
2021/01/18 01:01:25;;;;;;;6.72;4.47;;;0.80;99.90;;;;;;4724857;30;20058;-81
2021/01/18 01:03:58;;;;;;;4.88;3.72;;;0.80;99.90;;;;;;4723560;30;20147;-82
2021/01/18 01:06:34;;;;;;;5.60;4.03;;;0.70;99.90;;;;;;4723816;30;20048;-82
2021/01/18 01:09:10;;;;;;;7.15;4.50;;;0.70;99.90;;;;;;4737882;30;20076;-81
2021/01/18 01:12:07;;;;;;;11.40;4.75;;;0.70;99.90;;;;;;5312967;24;20471;-82
2021/01/18 01:14:35;;;;;;;7.22;5.10;;;0.70;99.90;;;;;;4757609;30;20055;-83
2021/01/18 01:17:03;;;;;;;7.95;4.63;;;0.70;99.90;;;;;;4759004;30;20052;-83
2021/01/18 01:19:30;;;;;;;6.45;4.75;;;0.80;99.90;;;;;;4779734;30;20143;-83
2021/01/18 03:08:40;;;;;;;8.60;4.20;;;0.80;99.90;;;;;;4772981;30;20138;-82
2021/01/18 03:26:46;;;;;;;8.27;4.80;;;0.80;99.90;;;;;;4947397;24;20070;-82
2021/01/18 03:29:17;;;;;;;8.52;4.60;;;0.80;99.90;;;;;;4788418;30;20048;-82
2021/01/18 03:32:32;;;;;;;8.32;4.70;;;0.80;99.90;;;;;;4802975;30;20106;-82
2021/01/18 03:35:04;;;;;;;8.15;5.10;;;0.80;99.90;;;;;;4772149;30;20081;-82
2021/01/18 03:37:36;;;;;;;;;;;0.80;99.90;;;;;;4773985;30;20520;-82
2021/01/18 03:41:33;;;;;;;10.95;5.00;;;0.80;99.90;;;;;;4802140;30;20032;-82
2021/01/18 03:45:29;;;;;;;12.10;5.40;;;0.80;99.90;;;;;;4803221;30;20542;-82
2021/01/18 03:48:29;;;;;;;7.97;4.90;;;0.80;99.90;;;;;;4782670;30;20055;-82
2021/01/18 03:52:10;;;;;;;7.85;5.10;;;0.80;99.90;;;;;;4800175;30;20096;-83
2021/01/18 03:55:20;;;;;;;10.30;5.90;;;0.70;99.90;;;;;;4792021;30;20099;-83
2021/01/18 03:59:05;;;;;;;8.05;5.00;;;0.70;99.90;;;;;;4803686;30;20086;-82
2021/01/18 04:16:46;;;;;;;13.43;6.43;;;0.60;99.90;;;;;;4748723;30;20063;-83
2021/01/18 04:20:01;;;;;;;11.05;5.75;;;0.70;99.90;;;;;;4755677;30;20063;-83
2021/01/18 04:22:55;;;;;;;9.85;5.60;;;0.60;99.90;;;;;;4766314;30;20056;-82
2021/01/18 04:37:56;;;;;;;9.60;6.25;;;0.60;99.90;;;;;;4819041;24;20063;-82
2021/01/18 04:54:17;;;;;;;12.23;6.53;;;0.60;99.90;;;;;;4756394;24;20059;-82
2021/01/18 04:57:10;;;;;;;9.45;6.05;;;0.60;99.90;;;;;;4791875;30;20064;-82
2021/01/18 04:59:47;;;;;;;12.32;6.65;;;0.60;99.90;;;;;;4789067;30;20085;-82
2021/01/18 05:02:52;;;;;;;16.23;6.90;;;0.60;99.90;;;;;;4776159;30;20080;-82
2021/01/18 05:14:59;;;;;;;8.75;5.63;;;0.60;99.90;;;;;;4672960;30;20606;-82
2021/01/18 05:35:50;;;;;;;10.20;6.25;;;0.70;99.90;;;;;;4631448;30;20103;-83
2021/01/18 05:38:23;;;;;;;10.07;5.97;;;0.70;99.90;;;;;;4661210;30;20060;-82
2021/01/18 05:42:37;;;;;;;9.25;5.07;;;0.60;99.90;;;;;;4741511;30;20610;-82
2021/01/18 05:47:00;;;;;;;9.43;5.60;;;0.70;99.90;;;;;;4728232;30;20056;-82
2021/01/18 05:49:53;;;;;;;10.38;5.68;;;0.70;99.90;;;;;;4721178;30;20045;-78
2021/01/18 05:52:30;;;;;;;9.18;5.43;;;0.60;99.90;;;;;;4719675;30;20059;-78
2021/01/18 05:55:23;;;;;;;9.02;6.43;;;0.70;99.90;;;;;;4770784;30;20047;-78
2021/01/18 05:58:00;;;;;;;10.32;7.00;;;0.60;99.90;;;;;;4770617;30;20526;-78
2021/01/18 06:00:36;;;;;;;11.20;5.50;;;0.60;99.90;;;;;;4773773;30;20050;-81
2021/01/18 06:03:11;;;;;;;11.43;5.97;;;0.60;99.90;;;;;;4778286;30;20071;-81
2021/01/18 06:05:42;;;;;;;11.57;5.18;;;0.60;99.90;;;;;;4769330;30;20051;-79
2021/01/18 06:08:19;;;;;;;11.10;6.03;;;0.60;99.90;;;;;;4750007;30;20059;-78
2021/01/18 06:10:52;;;;;;;9.95;5.20;;;0.70;99.90;;;;;;4749645;30;20052;-78
2021/01/18 06:13:34;;;;;;;10.75;6.40;;;0.70;99.90;;;;;;4750167;30;20072;-79
2021/01/18 06:16:09;;;;;;;10.63;6.60;;;0.60;99.90;;;;;;4719408;30;20444;-78
2021/01/18 06:18:41;;;;;;;9.70;5.35;;;0.60;99.90;;;;;;4742643;30;20047;-78
2021/01/18 06:21:13;;;;;;;10.68;5.65;;;0.60;99.90;;;;;;4768837;30;20062;-78
2021/01/18 06:23:44;;;;;;;11.82;5.70;;;0.60;99.90;;;;;;4738978;30;20083;-78
2021/01/18 06:26:15;;;;;;;9.32;5.63;;;0.70;99.90;;;;;;4749962;30;20050;-78
2021/01/18 06:28:47;;;;;;;11.07;6.18;;;0.70;99.90;;;;;;4738320;30;20420;-79
2021/01/18 06:31:18;;;;;;;8.38;5.13;;;0.70;99.90;;;;;;4734318;30;20101;-79
2021/01/18 06:33:50;;;;;;;10.20;6.00;;;0.70;99.90;;;;;;4749767;30;20048;-78
2021/01/18 06:36:26;;;;;;;9.30;5.70;;;0.70;99.90;;;;;;4749648;30;20147;-78
2021/01/18 06:38:58;;;;;;;11.07;6.18;;;0.70;99.90;;;;;;4734889;30;20489;-78
2021/01/18 06:41:37;;;;;;;14.10;6.00;;;0.70;99.90;;;;;;4749502;30;20044;-79
2021/01/18 06:44:08;;;;;;;7.45;4.97;;;0.70;99.90;;;;;;4749168;30;20147;-78
2021/01/18 06:46:39;;;;;;;8.40;5.60;;;0.70;99.90;;;;;;4749525;30;20138;-78
2021/01/18 06:49:06;;;;;;;10.52;6.00;;;0.70;99.90;;;;;;4750362;30;20418;-78
2021/01/18 06:51:50;;;;;;;8.98;5.70;;;0.70;99.90;;;;;;4754044;30;20222;-78
2021/01/18 06:54:20;;;;;;;11.63;5.40;;;0.70;99.90;;;;;;4768457;30;20142;-78
2021/01/18 06:57:11;;;;;;;7.47;4.82;;;0.70;99.90;;;;;;4784358;30;20052;-79
2021/01/18 06:59:49;;;;;;;8.82;5.70;;;0.70;99.90;;;;;;4769820;30;20465;-78
2021/01/18 07:02:20;;;;;;;8.90;5.38;;;0.70;99.90;;;;;;4769712;30;20567;-78
2021/01/18 07:05:04;;;;;;;11.88;6.30;;;0.70;99.90;;;;;;4769796;30;20051;-78
2021/01/18 07:07:38;;;;;;;12.15;6.90;;;0.60;99.90;;;;;;4777351;30;20062;-78
2021/01/18 07:10:09;;;;;;;12.70;6.05;;;0.60;99.90;;;;;;4750845;30;20082;-78
2021/01/18 07:12:41;;;;;;;9.82;5.80;;;0.60;99.90;;;;;;4752026;30;20083;-78
2021/01/18 07:15:12;;;;;;;11.65;5.40;;;0.60;99.90;;;;;;4734397;30;20105;-78
2021/01/18 07:17:52;;;;;;;8.98;5.43;;;0.70;99.90;;;;;;4749039;30;20109;-78
2021/01/18 07:20:28;;;;;;;9.40;5.63;;;0.70;99.90;;;;;;4751116;30;20052;-78
2021/01/18 07:23:08;;;;;;;10.00;5.78;;;0.70;99.90;;;;;;4765463;30;20730;-78
2021/01/18 07:25:40;;;;;;;8.68;4.63;;;0.70;99.90;;;;;;4751775;30;20678;-78
2021/01/18 07:28:20;;;;;;;12.93;6.45;;;0.70;99.90;;;;;;4750561;30;20048;-77
2021/01/18 07:30:55;;;;;;;10.13;5.38;;;0.70;99.90;;;;;;4750903;30;20047;-78
2021/01/18 07:33:26;;;;;;;8.80;5.38;;;0.80;99.90;;;;;;4750692;30;20151;-77
2021/01/18 07:35:58;;;;;;;8.73;4.95;;;0.80;99.90;;;;;;4736631;30;20059;-77
2021/01/18 07:38:28;;;;;;;6.20;4.35;;;0.80;99.90;;;;;;4750291;30;20078;-77
2021/01/18 07:41:06;;;;;;;10.82;5.75;;;0.80;99.90;;;;;;4752981;30;20083;-81
2021/01/18 07:43:45;;;;;;;8.90;5.07;;;0.80;99.90;;;;;;4753943;30;20071;-81
2021/01/18 07:46:23;;;;;;;11.27;4.65;;;0.80;99.90;;;;;;4742242;30;20076;-80
2021/01/18 07:48:55;;;;;;;8.18;4.55;;;0.80;99.90;;;;;;4721203;30;20525;-80
2021/01/18 07:51:27;;;;;;;8.55;4.07;;;0.90;99.90;;;;;;4735205;30;20080;-81
2021/01/18 07:53:59;;;;;;;7.93;4.30;;;0.90;99.90;;;;;;4720721;30;20156;-80
2021/01/18 07:56:29;;;;;;;8.82;4.43;;;0.90;99.90;;;;;;4735001;30;20091;-80
2021/01/18 07:59:06;;;;;;;5.72;4.03;;;0.90;99.90;;;;;;4748727;30;20076;-80
2021/01/18 08:01:37;;;;;;;8.23;4.57;;;0.90;99.90;;;;;;4736426;30;20135;-81
2021/01/18 08:04:16;;;;;;;12.13;4.05;;;1.00;99.90;;;;;;4749543;30;20052;-80
2021/01/18 08:07:08;;;;;;;7.35;3.83;;;1.00;99.90;;;;;;4734389;30;20048;-81
2021/01/18 08:09:41;;;;;;;5.95;3.55;;;1.00;99.90;;;;;;4752622;30;20509;-81
2021/01/18 08:12:31;;;;;;;5.82;3.83;;;1.00;99.90;;;;;;4752074;30;20179;-80
2021/01/18 08:15:09;;;;;;;7.00;3.45;;;1.00;99.90;;;;;;4752968;30;20048;-80
2021/01/18 08:17:41;;;;;;;9.00;3.95;;;1.00;99.90;;;;;;4767587;30;20131;-81
2021/01/18 08:20:22;;;;;;;5.68;3.60;;;1.10;99.90;;;;;;4752793;30;20075;-80
2021/01/18 08:22:53;;;;;;;7.47;3.47;;;1.10;99.90;;;;;;4738699;30;20078;-80
2021/01/18 08:25:30;;;;;;;6.68;3.42;;;1.10;99.90;;;;;;4738788;30;20139;-81
2021/01/18 08:28:00;;;;;;;9.13;3.92;;;1.10;99.90;;;;;;4754917;30;20142;-79
2021/01/18 08:30:34;;;;;;;9.48;4.13;;;1.10;99.90;;;;;;4743308;30;20056;-80
2021/01/18 08:33:06;;;;;;;;;;;1.10;99.90;;;;;;4743795;30;20394;-81
2021/01/18 08:35:50;;;;;;;8.32;3.78;;;1.10;99.90;;;;;;4759434;30;20413;-81
2021/01/18 08:38:22;;;;;;;7.90;4.50;;;1.20;99.90;;;;;;4754882;30;20142;-81
2021/01/18 08:41:03;;;;;;;8.65;5.05;;;1.10;99.90;;;;;;4757223;30;20140;-81
2021/01/18 08:43:55;;;;;;;9.82;3.83;;;1.20;99.90;;;;;;4756905;30;20512;-81
2021/01/18 08:46:42;;;;;;;9.82;5.85;;;1.20;99.90;;;;;;4756937;30;20047;-81
2021/01/18 08:49:25;;;;;;;7.28;5.30;;;1.20;99.90;;;;;;4743333;30;20063;-81
2021/01/18 08:51:57;;;;;;;7.40;4.13;;;1.20;99.90;;;;;;4743208;30;20048;-80
2021/01/18 08:54:32;;;;;;;6.97;4.18;;;1.30;99.90;;;;;;4756696;30;20377;-80
2021/01/18 08:57:24;;;;;;;7.72;4.30;;;1.30;99.90;;;;;;4757567;30;20066;-81
2021/01/18 09:00:10;;;;;;;10.38;5.97;;;1.30;99.90;;;;;;4777685;30;20059;-82
2021/01/18 09:02:40;;;;;;;6.75;4.18;;;1.30;99.90;;;;;;4766671;30;20056;-81
2021/01/18 09:05:21;;;;;;;10.20;4.18;;;1.40;99.90;;;;;;4902252;24;20520;-81
2021/01/18 09:09:02;;;;;;;9.73;4.22;;;1.40;99.90;;;;;;4742106;30;20059;-81
2021/01/18 09:13:14;;;;;;;8.20;4.50;;;1.50;99.90;;;;;;4733839;30;20083;-81
2021/01/18 09:15:48;;;;;;;8.63;4.15;;;1.50;99.90;;;;;;4748100;30;20147;-82
2021/01/18 09:18:33;;;;;;;11.20;4.95;;;1.50;99.90;;;;;;4749584;30;20056;-83
2021/01/18 09:42:47;;;;;;;7.22;3.67;;;1.60;99.90;;;;;;4787677;30;20427;-82
2021/01/18 09:45:22;;;;;;;10.63;5.80;;;1.70;99.90;;;;;;5254726;24;20086;-80
2021/01/18 10:17:16;;;;;;;7.40;3.58;;;2.50;99.90;;;;;;5790653;24;20036;-81
2021/01/18 10:32:39;;;;;;;5.50;3.72;;;2.70;99.90;;;;;;5208511;24;20063;-81
2021/01/18 10:37:10;;;;;;;7.38;3.25;;;2.70;99.90;;;;;;4794057;30;20388;-83
2021/01/18 11:50:30;;;;;;;6.63;3.78;;;2.50;99.90;;;;;;4794082;29;20112;-82
2021/01/18 12:52:17;;;;;;;8.00;4.50;;;2.20;99.90;;;;;;4760291;30;20056;-81
2021/01/18 12:54:49;;;;;;;7.47;3.97;;;2.20;99.90;;;;;;4739968;30;20062;-80
2021/01/18 12:57:16;;;;;;;7.60;3.60;;;2.20;99.90;;;;;;4752888;30;20056;-80
2021/01/18 12:59:47;;;;;;;7.53;4.30;;;2.20;99.90;;;;;;4754551;30;20060;-80
2021/01/18 13:02:14;;;;;;;6.30;3.38;;;2.10;99.90;;;;;;4754152;30;20054;-81
2021/01/18 13:04:41;;;;;;;6.10;3.90;;;2.00;99.90;;;;;;4754306;30;20063;-81
2021/01/18 13:07:13;;;;;;;8.00;3.85;;;2.00;99.90;;;;;;4768407;30;20052;-81
2021/01/18 13:09:44;;;;;;;7.55;4.53;;;1.90;99.90;;;;;;4753071;30;20465;-81
2021/01/18 13:12:16;;;;;;;7.03;4.55;;;1.90;99.90;;;;;;4753127;30;20047;-81
2021/01/18 13:14:43;;;;;;;6.43;3.65;;;1.90;99.90;;;;;;4739762;30;20064;-81
2021/01/18 13:17:15;;;;;;;8.02;3.90;;;1.90;99.90;;;;;;4756322;30;20451;-81
2021/01/18 13:19:46;;;;;;;7.50;4.15;;;1.90;99.90;;;;;;4757118;30;20099;-80
2021/01/18 13:22:13;;;;;;;5.78;3.75;;;1.90;99.90;;;;;;4756169;30;20064;-80
2021/01/18 13:24:40;;;;;;;9.30;4.57;;;1.90;99.90;;;;;;4756344;30;20060;-80
2021/01/18 13:27:12;;;;;;;8.63;4.22;;;1.80;99.90;;;;;;4770943;30;20048;-81
2021/01/18 13:29:44;;;;;;;7.28;4.30;;;1.80;99.90;;;;;;4756091;30;20048;-80
2021/01/18 13:32:15;;;;;;;7.00;4.07;;;1.80;99.90;;;;;;4741816;30;20048;-81
2021/01/18 13:34:50;;;;;;;8.13;4.22;;;1.80;99.90;;;;;;4845709;24;20052;-80
2021/01/18 13:37:16;;;;;;;7.55;3.65;;;1.80;99.90;;;;;;4916819;24;20060;-79
2021/01/18 13:39:43;;;;;;;6.43;4.40;;;1.80;99.90;;;;;;4747585;30;20122;-79
2021/01/18 13:42:15;;;;;;;8.63;4.13;;;1.80;99.90;;;;;;4737799;30;20139;-79
2021/01/18 13:44:41;;;;;;;8.45;4.63;;;1.80;99.90;;;;;;4738275;30;20048;-79
2021/01/18 13:47:13;;;;;;;6.47;3.72;;;1.70;99.90;;;;;;4723698;30;20087;-79
2021/01/18 13:49:44;;;;;;;6.97;4.10;;;1.80;99.90;;;;;;4735732;30;20048;-79
2021/01/18 13:52:12;;;;;;;9.13;4.03;;;1.70;99.90;;;;;;4738333;30;20514;-79
2021/01/18 13:54:43;;;;;;;8.85;4.65;;;1.70;99.90;;;;;;4753455;30;20056;-79
2021/01/18 13:57:15;;;;;;;6.55;4.10;;;1.70;99.90;;;;;;4735425;30;20051;-79
2021/01/18 13:59:46;;;;;;;8.43;4.47;;;1.60;99.90;;;;;;4738477;30;20056;-79
2021/01/18 14:02:17;;;;;;;9.68;5.78;;;1.60;99.90;;;;;;4738210;30;20079;-78
2021/01/18 14:04:44;;;;;;;8.73;4.32;;;1.60;99.90;;;;;;4751613;30;20048;-79
2021/01/18 14:07:10;;;;;;;8.02;4.25;;;1.60;99.90;;;;;;4752912;30;20048;-79
2021/01/18 14:09:41;;;;;;;6.82;4.57;;;1.60;99.90;;;;;;4737803;30;20388;-79
2021/01/18 14:12:13;;;;;;;10.30;5.13;;;1.60;99.90;;;;;;4752964;30;20056;-79
2021/01/18 14:14:44;;;;;;;7.50;4.25;;;1.60;99.90;;;;;;4739325;30;20414;-78
2021/01/18 14:17:23;;;;;;;9.60;4.20;;;1.60;99.90;;;;;;4740032;30;20066;-79
2021/01/18 14:19:54;;;;;;;6.97;4.28;;;1.60;99.90;;;;;;4740247;30;20594;-77
2021/01/18 14:22:25;;;;;;;7.65;3.95;;;1.60;99.90;;;;;;4739683;30;20052;-79
2021/01/18 14:24:56;;;;;;;6.85;4.07;;;1.60;99.90;;;;;;4754047;30;20050;-79
2021/01/18 14:27:27;;;;;;;8.57;4.43;;;1.50;99.90;;;;;;4737861;30;20054;-79
2021/01/18 14:29:59;;;;;;;9.93;4.72;;;1.50;99.90;;;;;;4751556;30;20593;-79
2021/01/18 14:32:30;;;;;;;7.60;4.18;;;1.50;99.90;;;;;;4753392;30;20044;-79
2021/01/18 14:34:56;;;;;;;10.23;5.43;;;1.50;99.90;;;;;;4753601;30;20051;-79
2021/01/18 14:37:27;;;;;;;8.38;4.43;;;1.50;99.90;;;;;;4738960;30;20059;-79
2021/01/18 14:39:54;;;;;;;9.98;4.88;;;1.50;99.90;;;;;;4741064;30;20146;-79
2021/01/18 14:42:25;;;;;;;8.88;4.47;;;1.50;99.90;;;;;;4741014;30;20055;-78
2021/01/18 14:44:56;;;;;;;6.68;3.92;;;1.50;99.90;;;;;;4755517;30;20079;-78
2021/01/18 14:47:28;;;;;;;12.23;5.55;;;1.40;99.90;;;;;;4755575;30;20075;-78
2021/01/18 14:49:59;;;;;;;6.57;4.32;;;1.40;99.90;;;;;;4741153;30;20058;-78
2021/01/18 14:52:32;;;;;;;6.40;4.60;;;1.40;99.90;;;;;;4755543;30;20492;-79
2021/01/18 14:55:29;;;;;;;7.97;4.18;;;1.40;99.90;;;;;;5133808;24;20037;-80
2021/01/18 14:57:58;;;;;;;9.57;4.55;;;1.40;99.90;;;;;;4735515;30;20052;-80
2021/01/18 15:00:24;;;;;;;9.00;6.07;;;1.40;99.90;;;;;;4737377;30;20055;-80
2021/01/18 15:02:51;;;;;;;8.65;5.07;;;1.30;99.90;;;;;;4737207;30;20044;-80
2021/01/18 15:05:23;;;;;;;8.18;4.63;;;1.40;99.90;;;;;;4789578;24;20157;-80
2021/01/18 15:07:54;;;;;;;9.98;4.50;;;1.30;99.90;;;;;;4735079;30;20147;-80
2021/01/18 15:10:21;;;;;;;8.73;4.57;;;1.30;99.90;;;;;;4734307;30;20060;-80
2021/01/18 15:12:52;;;;;;;6.55;4.53;;;1.30;99.90;;;;;;4720245;30;20061;-80
2021/01/18 15:15:24;;;;;;;9.25;5.15;;;1.30;99.90;;;;;;4734811;30;20072;-80
2021/01/18 15:17:56;;;;;;;8.52;4.57;;;1.20;99.90;;;;;;4734863;30;20063;-80
2021/01/18 15:20:27;;;;;;;8.13;4.45;;;1.30;99.90;;;;;;4735052;30;20060;-80
2021/01/18 15:22:59;;;;;;;8.50;4.72;;;1.30;99.90;;;;;;4734256;30;20080;-80
2021/01/18 15:25:26;;;;;;;8.50;4.50;;;1.30;99.90;;;;;;4719531;30;20479;-80
2021/01/18 15:27:58;;;;;;;7.90;4.97;;;1.20;99.90;;;;;;4734753;30;20076;-80
2021/01/18 15:30:29;;;;;;;7.18;4.78;;;1.20;99.90;;;;;;4733996;30;20069;-80
2021/01/18 15:33:03;;;;;;;10.10;5.57;;;1.20;99.90;;;;;;4734078;30;20048;-80
2021/01/18 15:35:33;;;;;;;6.65;4.72;;;1.20;99.90;;;;;;4719329;30;20092;-80
2021/01/18 15:38:05;;;;;;;9.02;5.32;;;1.10;99.90;;;;;;4734331;30;20508;-81
2021/01/18 15:40:32;;;;;;;9.52;5.15;;;1.10;99.90;;;;;;4748642;30;20110;-80
2021/01/18 15:43:04;;;;;;;9.95;5.63;;;1.10;99.90;;;;;;4733904;30;20061;-81
2021/01/18 15:45:31;;;;;;;9.70;5.85;;;1.10;99.90;;;;;;4730634;30;20505;-79
2021/01/18 15:47:57;;;;;;;8.60;5.22;;;1.10;99.90;;;;;;4731421;30;20063;-76
2021/01/18 15:50:28;;;;;;;9.75;5.15;;;1.10;99.90;;;;;;4734182;30;20045;-82
2021/01/18 15:53:00;;;;;;;8.52;5.70;;;1.10;99.90;;;;;;4718234;30;20053;-80
2021/01/18 15:55:27;;;;;;;8.90;5.53;;;1.10;99.90;;;;;;4738520;30;20057;-80
2021/01/18 15:57:58;;;;;;;10.82;5.25;;;1.10;99.90;;;;;;4730485;30;20053;-80
2021/01/18 16:00:25;;;;;;;9.93;5.13;;;1.10;99.90;;;;;;4735040;30;20401;-80
2021/01/18 16:02:52;;;;;;;11.35;6.10;;;1.10;99.90;;;;;;4751524;30;20106;-79
2021/01/18 16:05:24;;;;;;;7.57;4.80;;;1.00;99.90;;;;;;4751219;30;20052;-80
2021/01/18 16:07:55;;;;;;;14.05;5.60;;;1.10;99.90;;;;;;4752073;30;20048;-80
2021/01/18 16:10:23;;;;;;;9.88;5.93;;;1.00;99.90;;;;;;4737204;30;20049;-79
2021/01/18 16:12:50;;;;;;;11.15;5.13;;;1.00;99.90;;;;;;4751035;30;20053;-80
2021/01/18 16:15:22;;;;;;;7.50;4.35;;;1.00;99.90;;;;;;4746941;30;20048;-80
2021/01/18 16:17:54;;;;;;;10.40;5.30;;;1.00;99.90;;;;;;4719410;30;20513;-80
2021/01/18 16:20:28;;;;;;;8.30;4.97;;;1.10;99.90;;;;;;4719837;30;20059;-80
2021/01/18 16:23:00;;;;;;;9.05;4.43;;;1.00;99.90;;;;;;4734279;30;20060;-80
2021/01/18 16:25:30;;;;;;;8.70;4.50;;;1.00;99.90;;;;;;4748189;30;20084;-80
2021/01/18 16:28:02;;;;;;;7.75;4.38;;;1.10;99.90;;;;;;4734230;30;20059;-80
2021/01/18 16:30:34;;;;;;;9.93;4.85;;;1.10;99.90;;;;;;4734684;30;20520;-80
2021/01/18 16:36:58;;;;;;;8.98;4.38;;;1.00;99.90;;;;;;4734653;30;20112;-79
2021/01/18 16:39:25;;;;;;;5.38;4.07;;;1.00;99.90;;;;;;4718904;30;20072;-79
2021/01/18 16:41:56;;;;;;;7.72;4.22;;;1.00;99.90;;;;;;4733620;30;20139;-78
2021/01/18 16:44:35;;;;;;;5.70;3.92;;;1.10;99.90;;;;;;4732909;30;20056;-79
2021/01/18 16:47:07;;;;;;;6.55;3.95;;;1.10;99.90;;;;;;4720282;30;20053;-79
2021/01/18 16:49:34;;;;;;;7.97;4.43;;;1.10;99.90;;;;;;4734313;30;20057;-79
2021/01/18 16:52:08;;;;;;;8.18;4.25;;;1.10;99.90;;;;;;4702389;30;20049;-78
2021/01/18 16:54:39;;;;;;;8.20;3.90;;;1.10;99.90;;;;;;4716619;30;20057;-79
2021/01/18 16:57:11;;;;;;;6.05;3.67;;;1.10;99.90;;;;;;4716597;30;20513;-79
2021/01/18 16:59:37;;;;;;;8.55;3.90;;;1.10;99.90;;;;;;4719739;30;20067;-79
2021/01/18 17:02:08;;;;;;;7.28;3.90;;;1.10;99.90;;;;;;4716735;30;20082;-79
2021/01/18 17:04:35;;;;;;;5.88;3.65;;;1.10;99.90;;;;;;4724621;30;20199;-80
2021/01/18 17:07:06;;;;;;;7.30;4.20;;;1.10;99.90;;;;;;4728686;30;20137;-80
2021/01/18 17:09:37;;;;;;;7.53;4.35;;;1.10;99.90;;;;;;4731742;30;20524;-79
2021/01/18 17:12:09;;;;;;;6.47;4.03;;;1.00;99.90;;;;;;4734952;30;20131;-80
2021/01/18 17:14:36;;;;;;;10.43;5.35;;;1.10;99.90;;;;;;4739409;30;20075;-80
2021/01/18 19:39:26;;;;;;;9.75;5.32;;;0.80;99.90;;;;;;4714318;30;20122;-79
2021/01/18 19:41:58;;;;;;;9.23;5.40;;;0.80;99.90;;;;;;4700309;30;20055;-77
2021/01/18 19:44:28;;;;;;;8.57;5.35;;;0.80;99.90;;;;;;4731663;30;20564;-77
2021/01/18 19:46:56;;;;;;;10.55;6.40;;;0.70;99.90;;;;;;4733999;30;20048;-77
2021/01/18 19:49:23;;;;;;;8.25;4.90;;;0.70;99.90;;;;;;4736860;30;20050;-77
2021/01/18 19:51:55;;;;;;;8.85;5.57;;;0.70;99.90;;;;;;4725303;30;20612;-77
2021/01/18 19:54:26;;;;;;;12.45;5.88;;;0.70;99.90;;;;;;4730905;30;20052;-77
2021/01/18 19:56:57;;;;;;;9.23;4.85;;;0.60;99.90;;;;;;4733319;30;20059;-77
2021/01/18 19:59:28;;;;;;;8.10;5.60;;;0.60;99.90;;;;;;4761738;30;20058;-77
2021/01/18 20:02:04;;;;;;;8.27;5.57;;;0.60;99.90;;;;;;4745253;30;20049;-76
2021/01/18 20:04:35;;;;;;;9.65;5.75;;;0.60;99.90;;;;;;4716840;30;20512;-77
2021/01/18 20:07:10;;;;;;;8.93;5.70;;;0.60;99.90;;;;;;4744609;30;20397;-77
2021/01/18 20:09:41;;;;;;;8.98;5.18;;;0.60;99.90;;;;;;4728436;30;20135;-77
2021/01/18 20:12:07;;;;;;;11.00;5.65;;;0.60;99.90;;;;;;4728500;30;20053;-76
2021/01/18 20:14:39;;;;;;;8.38;5.07;;;0.60;99.90;;;;;;4739533;30;20504;-77
2021/01/18 20:17:05;;;;;;;8.93;4.75;;;0.60;99.90;;;;;;4730886;30;20497;-77
2021/01/18 20:19:31;;;;;;;7.00;5.05;;;0.60;99.90;;;;;;4743862;30;20067;-76
2021/01/18 20:22:03;;;;;;;6.50;4.40;;;0.60;99.90;;;;;;4729246;30;20078;-77
2021/01/18 20:24:34;;;;;;;7.05;4.32;;;0.60;99.90;;;;;;4741820;30;20048;-76
2021/01/18 20:27:05;;;;;;;8.82;5.28;;;0.60;99.90;;;;;;4764847;30;20508;-77
2021/01/18 20:29:37;;;;;;;10.68;4.57;;;0.60;99.90;;;;;;4750417;30;20134;-77
2021/01/18 20:32:04;;;;;;;7.55;4.22;;;0.60;99.90;;;;;;4750745;30;20066;-77
2021/01/18 20:34:31;;;;;;;10.88;5.60;;;0.50;99.90;;;;;;4751055;30;20170;-76
2021/01/18 20:36:57;;;;;;;7.60;4.50;;;0.50;99.90;;;;;;4751291;30;20109;-77
2021/01/18 20:39:24;;;;;;;8.40;4.90;;;0.50;99.90;;;;;;4734022;30;20145;-77
2021/01/18 20:41:55;;;;;;;6.68;3.95;;;0.50;99.90;;;;;;4731085;30;20055;-79
2021/01/18 20:47:00;;;;;;;9.88;4.72;;;0.50;99.90;;;;;;4720219;30;20053;-80
2021/01/18 20:49:32;;;;;;;6.70;4.18;;;0.40;99.90;;;;;;4707861;30;20056;-80
2021/01/18 20:51:58;;;;;;;8.48;5.07;;;0.40;99.90;;;;;;4735752;30;20505;-79
2021/01/18 20:54:25;;;;;;;7.28;4.57;;;0.40;99.90;;;;;;4721404;30;20079;-78
2021/01/18 20:56:57;;;;;;;8.65;4.57;;;0.40;99.90;;;;;;4721220;30;20060;-79
2021/01/18 20:59:29;;;;;;;7.88;4.40;;;0.40;99.90;;;;;;4707494;30;20071;-79
2021/01/18 21:02:00;;;;;;;9.15;4.72;;;0.40;99.90;;;;;;4721561;30;20059;-79
2021/01/18 21:04:32;;;;;;;7.93;4.57;;;0.40;99.90;;;;;;4721118;30;20516;-79
2021/01/18 21:06:59;;;;;;;8.40;5.53;;;0.30;99.90;;;;;;4721017;30;20079;-80
2021/01/18 21:09:25;;;;;;;8.13;4.45;;;0.30;99.90;;;;;;4720889;30;20420;-79
2021/01/18 21:11:58;;;;;;;8.20;4.18;;;0.30;99.90;;;;;;4721205;30;20052;-79
2021/01/18 21:14:25;;;;;;;11.32;5.10;;;0.30;99.90;;;;;;4721105;30;20095;-79
2021/01/18 21:17:03;;;;;;;8.15;4.78;;;0.20;99.90;;;;;;4721805;30;20131;-80
2021/01/18 21:19:30;;;;;;;9.65;5.75;;;0.30;99.90;;;;;;4720699;30;20124;-80
2021/01/18 21:22:02;;;;;;;6.43;4.13;;;0.20;99.90;;;;;;4720649;30;20145;-79
2021/01/18 21:24:29;;;;;;;7.57;4.47;;;0.20;99.90;;;;;;4720411;30;20099;-80
2021/01/18 21:26:56;;;;;;;6.90;4.03;;;0.20;99.90;;;;;;4720547;30;20106;-80
2021/01/18 21:29:27;;;;;;;7.78;3.83;;;0.20;99.90;;;;;;4735123;30;20040;-80
2021/01/18 21:31:59;;;;;;;7.15;4.68;;;0.20;99.90;;;;;;4721482;30;20130;-80
2021/01/18 21:34:31;;;;;;;6.13;3.75;;;0.20;99.90;;;;;;4705895;30;20098;-79
2021/01/18 21:37:02;;;;;;;6.82;3.78;;;0.20;99.90;;;;;;4719878;30;20048;-80
2021/01/18 21:39:34;;;;;;;9.10;4.38;;;0.20;99.90;;;;;;4706184;30;20059;-80
2021/01/18 21:42:09;;;;;;;8.18;4.13;;;0.10;99.90;;;;;;4720108;30;20136;-80
2021/01/18 21:44:41;;;;;;;7.45;4.25;;;0.20;99.90;;;;;;4734319;30;20526;-79
2021/01/18 21:47:12;;;;;;;9.43;4.15;;;0.20;99.90;;;;;;4719753;30;20091;-79
2021/01/18 21:49:39;;;;;;;7.40;3.70;;;0.20;99.90;;;;;;4705316;30;20053;-79
2021/01/18 21:52:11;;;;;;;5.18;3.40;;;0.10;99.90;;;;;;4719768;30;20067;-80
2021/01/18 21:54:42;;;;;;;7.65;3.58;;;0.10;99.90;;;;;;4719411;30;20068;-80
2021/01/18 21:57:14;;;;;;;6.78;4.00;;;0.10;99.90;;;;;;4719524;30;20056;-79
2021/01/18 21:59:45;;;;;;;5.68;3.00;;;0.10;99.90;;;;;;4705318;30;20053;-80
2021/01/18 22:02:13;;;;;;;5.10;3.67;;;0.20;99.90;;;;;;4719209;30;20057;-80
2021/01/18 22:04:45;;;;;;;5.78;3.63;;;0.10;99.90;;;;;;4719222;30;20083;-79
2021/01/18 22:07:11;;;;;;;5.32;2.92;;;0.10;99.90;;;;;;4719137;30;20056;-79
2021/01/18 22:09:43;;;;;;;6.82;4.13;;;0.10;99.90;;;;;;4705561;30;20103;-79
2021/01/18 22:12:15;;;;;;;6.25;3.00;;;0.10;99.90;;;;;;4718954;30;20053;-79
2021/01/18 22:14:46;;;;;;;5.60;3.47;;;0.10;99.90;;;;;;4732885;30;20155;-80
2021/01/18 22:17:17;;;;;;;5.93;3.33;;;0.10;99.90;;;;;;4733560;30;20564;-80
2021/01/18 22:19:49;;;;;;;6.75;3.75;;;0.00;99.90;;;;;;4718946;30;20080;-79
2021/01/18 22:22:20;;;;;;;6.32;3.40;;;0.00;99.90;;;;;;4718643;30;20059;-79
2021/01/18 22:24:46;;;;;;;6.82;3.75;;;0.00;99.90;;;;;;4718293;30;20475;-79
2021/01/18 22:27:17;;;;;;;5.25;3.58;;;0.00;99.90;;;;;;4733208;30;20592;-80
2021/01/18 22:29:49;;;;;;;5.75;3.58;;;0.00;99.90;;;;;;4718505;30;20064;-79
2021/01/18 22:32:20;;;;;;;6.85;3.75;;;0.00;99.90;;;;;;4732501;30;20465;-80